sensor_id;sensor_type;location;lat;lon;timestamp;temperature;humidity
75738;DHT22;64356;45.638;13.764;2022-10-31T00:00:48;22.10;76.90
75738;DHT22;64356;45.638;13.764;2022-10-31T00:03:15;22.10;77.40
75738;DHT22;64356;45.638;13.764;2022-10-31T00:05:46;22.10;77.00
75738;DHT22;64356;45.638;13.764;2022-10-31T00:08:12;22.10;77.10
75738;DHT22;64356;45.638;13.764;2022-10-31T00:10:41;22.10;76.90
75738;DHT22;64356;45.638;13.764;2022-10-31T00:13:08;22.10;76.80
75738;DHT22;64356;45.638;13.764;2022-10-31T00:15:38;22.10;76.70
75738;DHT22;64356;45.638;13.764;2022-10-31T00:18:05;22.10;76.60
75738;DHT22;64356;45.638;13.764;2022-10-31T00:20:31;22.10;76.70
75738;DHT22;64356;45.638;13.764;2022-10-31T00:22:58;22.10;77.30
75738;DHT22;64356;45.638;13.764;2022-10-31T00:25:25;22.10;76.90
75738;DHT22;64356;45.638;13.764;2022-10-31T00:27:51;22.10;76.90
75738;DHT22;64356;45.638;13.764;2022-10-31T00:30:16;22.10;76.80
75738;DHT22;64356;45.638;13.764;2022-10-31T00:32:42;22.10;76.90
75738;DHT22;64356;45.638;13.764;2022-10-31T00:35:07;22.10;76.90
75738;DHT22;64356;45.638;13.764;2022-10-31T00:37:33;22.10;76.80
75738;DHT22;64356;45.638;13.764;2022-10-31T00:39:59;22.20;76.60
75738;DHT22;64356;45.638;13.764;2022-10-31T00:42:24;22.20;76.40
75738;DHT22;64356;45.638;13.764;2022-10-31T00:44:50;22.10;76.20
75738;DHT22;64356;45.638;13.764;2022-10-31T00:47:16;22.10;76.30
75738;DHT22;64356;45.638;13.764;2022-10-31T00:49:41;22.10;76.20
75738;DHT22;64356;45.638;13.764;2022-10-31T00:52:07;22.10;76.10
75738;DHT22;64356;45.638;13.764;2022-10-31T00:54:32;22.20;76.40
75738;DHT22;64356;45.638;13.764;2022-10-31T00:56:58;22.20;76.40
75738;DHT22;64356;45.638;13.764;2022-10-31T00:59:24;22.20;76.40
75738;DHT22;64356;45.638;13.764;2022-10-31T01:01:49;22.10;76.50
75738;DHT22;64356;45.638;13.764;2022-10-31T01:04:15;22.20;76.50
75738;DHT22;64356;45.638;13.764;2022-10-31T01:06:41;22.10;76.70
75738;DHT22;64356;45.638;13.764;2022-10-31T01:09:07;22.20;76.80
75738;DHT22;64356;45.638;13.764;2022-10-31T01:11:32;22.10;76.80
75738;DHT22;64356;45.638;13.764;2022-10-31T01:13:58;22.10;76.80
75738;DHT22;64356;45.638;13.764;2022-10-31T01:16:25;22.10;76.70
75738;DHT22;64356;45.638;13.764;2022-10-31T01:18:51;22.10;76.70
75738;DHT22;64356;45.638;13.764;2022-10-31T01:21:20;22.20;76.40
75738;DHT22;64356;45.638;13.764;2022-10-31T01:23:46;22.10;76.30
75738;DHT22;64356;45.638;13.764;2022-10-31T01:26:18;22.10;76.50
75738;DHT22;64356;45.638;13.764;2022-10-31T01:28:49;22.10;76.40
75738;DHT22;64356;45.638;13.764;2022-10-31T01:31:16;22.20;76.30
75738;DHT22;64356;45.638;13.764;2022-10-31T01:33:42;22.10;76.30
75738;DHT22;64356;45.638;13.764;2022-10-31T01:36:20;22.20;76.20
75738;DHT22;64356;45.638;13.764;2022-10-31T01:38:47;22.10;76.50
75738;DHT22;64356;45.638;13.764;2022-10-31T01:41:15;22.10;76.50
75738;DHT22;64356;45.638;13.764;2022-10-31T01:43:53;22.10;76.90
75738;DHT22;64356;45.638;13.764;2022-10-31T01:46:40;22.10;76.40
75738;DHT22;64356;45.638;13.764;2022-10-31T01:49:14;22.10;76.50
75738;DHT22;64356;45.638;13.764;2022-10-31T01:51:47;22.10;76.70
75738;DHT22;64356;45.638;13.764;2022-10-31T01:54:14;22.10;76.80
75738;DHT22;64356;45.638;13.764;2022-10-31T01:56:46;22.10;76.60
75738;DHT22;64356;45.638;13.764;2022-10-31T01:59:15;22.10;76.50
75738;DHT22;64356;45.638;13.764;2022-10-31T02:01:42;22.10;76.60
75738;DHT22;64356;45.638;13.764;2022-10-31T02:04:08;22.10;76.70
75738;DHT22;64356;45.638;13.764;2022-10-31T02:06:42;22.00;76.60
75738;DHT22;64356;45.638;13.764;2022-10-31T02:09:11;22.00;76.60
75738;DHT22;64356;45.638;13.764;2022-10-31T02:11:39;22.00;76.70
75738;DHT22;64356;45.638;13.764;2022-10-31T02:14:05;22.10;76.40
75738;DHT22;64356;45.638;13.764;2022-10-31T02:16:31;22.10;76.30
75738;DHT22;64356;45.638;13.764;2022-10-31T02:18:57;22.10;76.30
75738;DHT22;64356;45.638;13.764;2022-10-31T02:22:11;22.10;76.20
75738;DHT22;64356;45.638;13.764;2022-10-31T02:30:20;22.10;75.90
75738;DHT22;64356;45.638;13.764;2022-10-31T02:32:57;22.10;76.10
75738;DHT22;64356;45.638;13.764;2022-10-31T02:38:24;22.10;75.90
75738;DHT22;64356;45.638;13.764;2022-10-31T02:44:01;22.00;75.90
75738;DHT22;64356;45.638;13.764;2022-10-31T02:46:39;22.10;75.70
75738;DHT22;64356;45.638;13.764;2022-10-31T02:50:03;22.00;75.80
75738;DHT22;64356;45.638;13.764;2022-10-31T02:52:34;22.10;75.60
75738;DHT22;64356;45.638;13.764;2022-10-31T02:55:08;22.10;75.60
75738;DHT22;64356;45.638;13.764;2022-10-31T02:57:35;22.10;75.50
75738;DHT22;64356;45.638;13.764;2022-10-31T03:00:05;22.00;75.30
75738;DHT22;64356;45.638;13.764;2022-10-31T03:05:27;22.00;75.50
75738;DHT22;64356;45.638;13.764;2022-10-31T03:08:08;22.10;75.70
75738;DHT22;64356;45.638;13.764;2022-10-31T03:10:41;22.10;75.60
75738;DHT22;64356;45.638;13.764;2022-10-31T03:13:12;22.00;75.60
75738;DHT22;64356;45.638;13.764;2022-10-31T03:15:50;22.00;75.60
75738;DHT22;64356;45.638;13.764;2022-10-31T03:18:40;22.00;75.60
75738;DHT22;64356;45.638;13.764;2022-10-31T03:21:18;22.10;75.50
75738;DHT22;64356;45.638;13.764;2022-10-31T03:23:46;22.00;75.60
75738;DHT22;64356;45.638;13.764;2022-10-31T03:26:13;22.00;76.20
75738;DHT22;64356;45.638;13.764;2022-10-31T03:29:03;22.00;75.70
75738;DHT22;64356;45.638;13.764;2022-10-31T03:31:36;22.00;75.80
75738;DHT22;64356;45.638;13.764;2022-10-31T03:34:05;22.10;75.90
75738;DHT22;64356;45.638;13.764;2022-10-31T03:36:34;22.00;75.60
75738;DHT22;64356;45.638;13.764;2022-10-31T03:39:02;22.10;75.80
75738;DHT22;64356;45.638;13.764;2022-10-31T03:41:33;22.00;75.80
75738;DHT22;64356;45.638;13.764;2022-10-31T03:44:25;22.10;75.80
75738;DHT22;64356;45.638;13.764;2022-10-31T03:46:52;22.00;75.60
75738;DHT22;64356;45.638;13.764;2022-10-31T03:49:18;22.10;75.70
75738;DHT22;64356;45.638;13.764;2022-10-31T03:54:42;22.00;75.70
75738;DHT22;64356;45.638;13.764;2022-10-31T03:57:12;22.00;75.60
75738;DHT22;64356;45.638;13.764;2022-10-31T03:59:47;22.10;75.70
75738;DHT22;64356;45.638;13.764;2022-10-31T04:02:19;22.00;75.80
75738;DHT22;64356;45.638;13.764;2022-10-31T04:04:47;22.10;75.70
75738;DHT22;64356;45.638;13.764;2022-10-31T04:07:15;22.10;75.70
75738;DHT22;64356;45.638;13.764;2022-10-31T04:09:43;22.10;75.60
75738;DHT22;64356;45.638;13.764;2022-10-31T04:12:12;22.00;75.60
75738;DHT22;64356;45.638;13.764;2022-10-31T04:14:42;22.10;75.60
75738;DHT22;64356;45.638;13.764;2022-10-31T04:17:12;22.10;75.70
75738;DHT22;64356;45.638;13.764;2022-10-31T04:19:39;22.10;75.70
75738;DHT22;64356;45.638;13.764;2022-10-31T04:22:04;22.10;75.70
75738;DHT22;64356;45.638;13.764;2022-10-31T04:24:30;22.00;75.60
75738;DHT22;64356;45.638;13.764;2022-10-31T04:26:56;22.10;75.70
75738;DHT22;64356;45.638;13.764;2022-10-31T04:29:21;22.10;75.70
75738;DHT22;64356;45.638;13.764;2022-10-31T04:31:47;22.10;75.70
75738;DHT22;64356;45.638;13.764;2022-10-31T04:34:13;22.10;75.80
75738;DHT22;64356;45.638;13.764;2022-10-31T04:36:38;22.00;75.70
75738;DHT22;64356;45.638;13.764;2022-10-31T04:39:04;22.00;75.50
75738;DHT22;64356;45.638;13.764;2022-10-31T04:41:29;22.00;75.70
75738;DHT22;64356;45.638;13.764;2022-10-31T04:43:55;22.00;75.80
75738;DHT22;64356;45.638;13.764;2022-10-31T04:46:21;22.10;75.70
75738;DHT22;64356;45.638;13.764;2022-10-31T04:48:46;22.10;75.80
75738;DHT22;64356;45.638;13.764;2022-10-31T04:51:12;22.10;75.70
75738;DHT22;64356;45.638;13.764;2022-10-31T04:53:38;22.00;75.50
75738;DHT22;64356;45.638;13.764;2022-10-31T04:56:04;22.00;75.50
75738;DHT22;64356;45.638;13.764;2022-10-31T04:58:29;22.00;75.50
75738;DHT22;64356;45.638;13.764;2022-10-31T05:00:55;22.10;75.70
75738;DHT22;64356;45.638;13.764;2022-10-31T05:03:21;22.00;75.70
75738;DHT22;64356;45.638;13.764;2022-10-31T05:05:47;22.00;75.50
75738;DHT22;64356;45.638;13.764;2022-10-31T05:08:14;22.10;75.50
75738;DHT22;64356;45.638;13.764;2022-10-31T05:10:39;22.10;75.30
75738;DHT22;64356;45.638;13.764;2022-10-31T05:13:05;22.10;75.10
75738;DHT22;64356;45.638;13.764;2022-10-31T05:15:31;22.00;75.50
75738;DHT22;64356;45.638;13.764;2022-10-31T05:17:57;22.00;75.10
75738;DHT22;64356;45.638;13.764;2022-10-31T05:20:25;22.00;75.20
75738;DHT22;64356;45.638;13.764;2022-10-31T05:22:53;22.00;75.30
75738;DHT22;64356;45.638;13.764;2022-10-31T05:25:21;22.00;75.20
75738;DHT22;64356;45.638;13.764;2022-10-31T05:27:48;22.00;75.10
75738;DHT22;64356;45.638;13.764;2022-10-31T05:30:17;22.00;75.10
75738;DHT22;64356;45.638;13.764;2022-10-31T05:32:45;22.00;75.10
75738;DHT22;64356;45.638;13.764;2022-10-31T05:35:14;22.00;75.20
75738;DHT22;64356;45.638;13.764;2022-10-31T05:37:40;22.00;75.30
75738;DHT22;64356;45.638;13.764;2022-10-31T05:40:07;22.00;75.30
75738;DHT22;64356;45.638;13.764;2022-10-31T05:42:33;22.00;75.40
75738;DHT22;64356;45.638;13.764;2022-10-31T05:44:59;22.00;75.40
75738;DHT22;64356;45.638;13.764;2022-10-31T05:47:24;22.00;75.40
75738;DHT22;64356;45.638;13.764;2022-10-31T05:49:50;22.00;75.50
75738;DHT22;64356;45.638;13.764;2022-10-31T05:52:16;22.00;75.60
75738;DHT22;64356;45.638;13.764;2022-10-31T05:54:42;22.00;75.60
75738;DHT22;64356;45.638;13.764;2022-10-31T05:57:08;22.00;75.60
75738;DHT22;64356;45.638;13.764;2022-10-31T05:59:33;22.00;75.50
75738;DHT22;64356;45.638;13.764;2022-10-31T06:01:59;22.00;75.40
75738;DHT22;64356;45.638;13.764;2022-10-31T06:04:25;22.00;75.30
75738;DHT22;64356;45.638;13.764;2022-10-31T06:06:50;22.00;75.50
75738;DHT22;64356;45.638;13.764;2022-10-31T06:09:16;22.00;75.40
75738;DHT22;64356;45.638;13.764;2022-10-31T06:11:41;22.00;75.40
75738;DHT22;64356;45.638;13.764;2022-10-31T06:14:07;22.00;75.40
75738;DHT22;64356;45.638;13.764;2022-10-31T06:16:33;22.00;75.50
75738;DHT22;64356;45.638;13.764;2022-10-31T06:18:59;22.00;75.60
75738;DHT22;64356;45.638;13.764;2022-10-31T06:21:25;22.00;75.50
75738;DHT22;64356;45.638;13.764;2022-10-31T06:23:50;22.00;75.40
75738;DHT22;64356;45.638;13.764;2022-10-31T06:26:16;22.00;75.20
75738;DHT22;64356;45.638;13.764;2022-10-31T06:28:42;22.00;75.20
75738;DHT22;64356;45.638;13.764;2022-10-31T06:31:08;22.00;75.30
75738;DHT22;64356;45.638;13.764;2022-10-31T06:33:36;22.00;75.20
75738;DHT22;64356;45.638;13.764;2022-10-31T06:36:02;22.00;75.20
75738;DHT22;64356;45.638;13.764;2022-10-31T06:38:28;22.00;75.20
75738;DHT22;64356;45.638;13.764;2022-10-31T06:40:54;22.00;75.40
75738;DHT22;64356;45.638;13.764;2022-10-31T06:43:21;22.00;75.40
75738;DHT22;64356;45.638;13.764;2022-10-31T06:45:47;22.00;75.40
75738;DHT22;64356;45.638;13.764;2022-10-31T06:48:12;22.00;75.40
75738;DHT22;64356;45.638;13.764;2022-10-31T06:50:38;22.00;75.30
75738;DHT22;64356;45.638;13.764;2022-10-31T06:53:04;22.00;75.20
75738;DHT22;64356;45.638;13.764;2022-10-31T06:55:29;21.90;75.10
75738;DHT22;64356;45.638;13.764;2022-10-31T06:58:00;22.00;75.00
75738;DHT22;64356;45.638;13.764;2022-10-31T07:00:28;22.00;74.90
75738;DHT22;64356;45.638;13.764;2022-10-31T07:02:55;22.00;74.70
75738;DHT22;64356;45.638;13.764;2022-10-31T07:05:21;22.00;74.40
75738;DHT22;64356;45.638;13.764;2022-10-31T07:07:47;22.00;74.30
75738;DHT22;64356;45.638;13.764;2022-10-31T07:10:12;22.00;74.40
75738;DHT22;64356;45.638;13.764;2022-10-31T07:12:38;22.00;74.40
75738;DHT22;64356;45.638;13.764;2022-10-31T07:15:04;22.00;74.50
75738;DHT22;64356;45.638;13.764;2022-10-31T07:17:30;22.00;74.50
75738;DHT22;64356;45.638;13.764;2022-10-31T07:19:56;22.00;74.50
75738;DHT22;64356;45.638;13.764;2022-10-31T07:22:21;22.00;74.70
75738;DHT22;64356;45.638;13.764;2022-10-31T07:24:47;22.00;74.70
75738;DHT22;64356;45.638;13.764;2022-10-31T07:27:12;22.00;74.60
75738;DHT22;64356;45.638;13.764;2022-10-31T07:29:38;22.00;74.70
75738;DHT22;64356;45.638;13.764;2022-10-31T07:32:04;22.00;74.60
75738;DHT22;64356;45.638;13.764;2022-10-31T07:34:29;22.00;74.60
75738;DHT22;64356;45.638;13.764;2022-10-31T07:36:55;22.00;74.30
75738;DHT22;64356;45.638;13.764;2022-10-31T07:39:21;22.00;74.10
75738;DHT22;64356;45.638;13.764;2022-10-31T07:41:46;22.00;74.30
75738;DHT22;64356;45.638;13.764;2022-10-31T07:44:12;22.10;74.80
75738;DHT22;64356;45.638;13.764;2022-10-31T07:46:37;22.10;75.70
75738;DHT22;64356;45.638;13.764;2022-10-31T07:49:03;22.10;76.20
75738;DHT22;64356;45.638;13.764;2022-10-31T07:51:29;22.10;76.10
75738;DHT22;64356;45.638;13.764;2022-10-31T07:53:55;22.10;76.30
75738;DHT22;64356;45.638;13.764;2022-10-31T07:56:20;22.20;76.30
75738;DHT22;64356;45.638;13.764;2022-10-31T07:58:46;22.20;76.40
75738;DHT22;64356;45.638;13.764;2022-10-31T08:01:11;22.10;76.40
75738;DHT22;64356;45.638;13.764;2022-10-31T08:03:37;22.00;72.30
75738;DHT22;64356;45.638;13.764;2022-10-31T08:06:03;21.70;68.10
75738;DHT22;64356;45.638;13.764;2022-10-31T08:08:28;21.50;68.00
75738;DHT22;64356;45.638;13.764;2022-10-31T08:10:54;21.40;69.20
75738;DHT22;64356;45.638;13.764;2022-10-31T08:13:20;21.30;67.20
75738;DHT22;64356;45.638;13.764;2022-10-31T08:15:46;21.20;66.70
75738;DHT22;64356;45.638;13.764;2022-10-31T08:18:16;21.10;68.50
75738;DHT22;64356;45.638;13.764;2022-10-31T08:20:42;21.10;69.70
75738;DHT22;64356;45.638;13.764;2022-10-31T08:23:10;21.10;69.60
75738;DHT22;64356;45.638;13.764;2022-10-31T08:25:36;20.90;68.60
75738;DHT22;64356;45.638;13.764;2022-10-31T08:28:02;20.40;67.90
75738;DHT22;64356;45.638;13.764;2022-10-31T08:30:30;20.10;69.00
75738;DHT22;64356;45.638;13.764;2022-10-31T08:33:01;19.90;69.70
75738;DHT22;64356;45.638;13.764;2022-10-31T08:35:27;19.80;70.20
75738;DHT22;64356;45.638;13.764;2022-10-31T08:37:56;19.80;70.00
75738;DHT22;64356;45.638;13.764;2022-10-31T08:40:23;19.70;70.10
75738;DHT22;64356;45.638;13.764;2022-10-31T08:43:02;19.70;70.20
75738;DHT22;64356;45.638;13.764;2022-10-31T08:45:30;19.70;70.50
75738;DHT22;64356;45.638;13.764;2022-10-31T08:47:57;19.60;70.30
75738;DHT22;64356;45.638;13.764;2022-10-31T08:50:23;19.80;71.40
75738;DHT22;64356;45.638;13.764;2022-10-31T08:52:49;20.10;70.80
75738;DHT22;64356;45.638;13.764;2022-10-31T08:55:15;20.20;69.80
75738;DHT22;64356;45.638;13.764;2022-10-31T08:57:40;20.40;69.20
75738;DHT22;64356;45.638;13.764;2022-10-31T09:00:07;20.40;69.60
75738;DHT22;64356;45.638;13.764;2022-10-31T09:02:33;20.50;68.50
75738;DHT22;64356;45.638;13.764;2022-10-31T09:04:58;20.50;67.60
75738;DHT22;64356;45.638;13.764;2022-10-31T09:07:24;20.50;68.50
75738;DHT22;64356;45.638;13.764;2022-10-31T09:09:50;20.70;69.40
75738;DHT22;64356;45.638;13.764;2022-10-31T09:12:15;20.80;69.40
75738;DHT22;64356;45.638;13.764;2022-10-31T09:14:41;20.90;69.00
75738;DHT22;64356;45.638;13.764;2022-10-31T09:17:06;21.00;69.00
75738;DHT22;64356;45.638;13.764;2022-10-31T09:19:32;21.00;69.10
75738;DHT22;64356;45.638;13.764;2022-10-31T09:21:58;21.10;69.30
75738;DHT22;64356;45.638;13.764;2022-10-31T09:24:23;21.10;69.50
75738;DHT22;64356;45.638;13.764;2022-10-31T09:26:49;21.20;69.80
75738;DHT22;64356;45.638;13.764;2022-10-31T09:29:15;21.30;70.00
75738;DHT22;64356;45.638;13.764;2022-10-31T09:31:40;21.30;70.10
75738;DHT22;64356;45.638;13.764;2022-10-31T09:34:06;21.30;70.10
75738;DHT22;64356;45.638;13.764;2022-10-31T09:36:31;21.30;70.20
75738;DHT22;64356;45.638;13.764;2022-10-31T09:38:57;21.30;70.10
75738;DHT22;64356;45.638;13.764;2022-10-31T09:50:19;21.10;68.70
75738;DHT22;64356;45.638;13.764;2022-10-31T09:52:58;21.20;69.50
75738;DHT22;64356;45.638;13.764;2022-10-31T09:55:39;21.10;68.10
75738;DHT22;64356;45.638;13.764;2022-10-31T09:58:13;21.10;68.30
75738;DHT22;64356;45.638;13.764;2022-10-31T10:00:39;21.00;67.90
75738;DHT22;64356;45.638;13.764;2022-10-31T10:03:35;21.00;67.50
75738;DHT22;64356;45.638;13.764;2022-10-31T10:06:25;21.00;68.00
75738;DHT22;64356;45.638;13.764;2022-10-31T10:08:53;21.00;68.10
75738;DHT22;64356;45.638;13.764;2022-10-31T10:12:09;21.00;67.80
75738;DHT22;64356;45.638;13.764;2022-10-31T10:20:15;21.00;68.30
75738;DHT22;64356;45.638;13.764;2022-10-31T10:25:24;21.10;68.80
75738;DHT22;64356;45.638;13.764;2022-10-31T10:32:57;21.00;69.90
75738;DHT22;64356;45.638;13.764;2022-10-31T10:35:35;21.00;70.10
75738;DHT22;64356;45.638;13.764;2022-10-31T10:40:44;21.10;71.30
75738;DHT22;64356;45.638;13.764;2022-10-31T10:46:00;21.20;73.10
75738;DHT22;64356;45.638;13.764;2022-10-31T10:57:10;21.30;72.60
75738;DHT22;64356;45.638;13.764;2022-10-31T10:59:37;21.30;72.20
75738;DHT22;64356;45.638;13.764;2022-10-31T11:02:08;21.40;72.60
75738;DHT22;64356;45.638;13.764;2022-10-31T11:04:40;21.40;72.80
75738;DHT22;64356;45.638;13.764;2022-10-31T11:07:10;21.40;72.30
75738;DHT22;64356;45.638;13.764;2022-10-31T11:09:37;21.40;72.30
75738;DHT22;64356;45.638;13.764;2022-10-31T11:12:32;21.50;71.90
75738;DHT22;64356;45.638;13.764;2022-10-31T11:15:03;21.40;72.00
75738;DHT22;64356;45.638;13.764;2022-10-31T11:17:33;21.40;71.30
75738;DHT22;64356;45.638;13.764;2022-10-31T11:22:47;21.40;71.00
75738;DHT22;64356;45.638;13.764;2022-10-31T11:27:46;21.40;71.00
75738;DHT22;64356;45.638;13.764;2022-10-31T11:30:13;21.40;71.20
75738;DHT22;64356;45.638;13.764;2022-10-31T11:32:50;21.40;70.50
75738;DHT22;64356;45.638;13.764;2022-10-31T11:35:19;21.40;70.40
75738;DHT22;64356;45.638;13.764;2022-10-31T11:37:47;21.40;70.40
75738;DHT22;64356;45.638;13.764;2022-10-31T11:42:43;21.40;70.80
75738;DHT22;64356;45.638;13.764;2022-10-31T11:45:28;21.40;70.30
75738;DHT22;64356;45.638;13.764;2022-10-31T11:47:56;21.40;70.00
75738;DHT22;64356;45.638;13.764;2022-10-31T11:50:28;21.40;69.40
75738;DHT22;64356;45.638;13.764;2022-10-31T11:52:55;21.40;70.00
75738;DHT22;64356;45.638;13.764;2022-10-31T11:57:57;21.40;69.50
75738;DHT22;64356;45.638;13.764;2022-10-31T12:00:26;21.40;69.40
75738;DHT22;64356;45.638;13.764;2022-10-31T12:03:06;21.40;69.40
75738;DHT22;64356;45.638;13.764;2022-10-31T12:05:37;21.50;69.40
75738;DHT22;64356;45.638;13.764;2022-10-31T12:08:03;21.40;69.30
75738;DHT22;64356;45.638;13.764;2022-10-31T12:10:59;21.50;69.20
75738;DHT22;64356;45.638;13.764;2022-10-31T12:24:28;21.50;69.00
75738;DHT22;64356;45.638;13.764;2022-10-31T12:27:06;21.50;68.90
75738;DHT22;64356;45.638;13.764;2022-10-31T12:35:26;21.50;69.20
75738;DHT22;64356;45.638;13.764;2022-10-31T12:38:00;21.50;69.20
75738;DHT22;64356;45.638;13.764;2022-10-31T12:49:07;21.50;69.30
75738;DHT22;64356;45.638;13.764;2022-10-31T12:59:15;21.60;69.50
75738;DHT22;64356;45.638;13.764;2022-10-31T13:01:50;21.60;69.50
75738;DHT22;64356;45.638;13.764;2022-10-31T13:06:58;21.60;69.60
75738;DHT22;64356;45.638;13.764;2022-10-31T13:09:36;21.60;69.70
75738;DHT22;64356;45.638;13.764;2022-10-31T13:12:08;21.60;69.70
75738;DHT22;64356;45.638;13.764;2022-10-31T13:15:05;21.60;69.80
75738;DHT22;64356;45.638;13.764;2022-10-31T13:17:52;21.60;70.40
75738;DHT22;64356;45.638;13.764;2022-10-31T13:25:44;21.70;69.80
75738;DHT22;64356;45.638;13.764;2022-10-31T13:30:47;21.60;70.10
75738;DHT22;64356;45.638;13.764;2022-10-31T13:33:18;21.70;70.40
75738;DHT22;64356;45.638;13.764;2022-10-31T13:36:24;21.70;70.80
75738;DHT22;64356;45.638;13.764;2022-10-31T13:38:52;21.70;71.40
75738;DHT22;64356;45.638;13.764;2022-10-31T13:44:18;21.70;72.70
75738;DHT22;64356;45.638;13.764;2022-10-31T13:46:46;21.70;72.30
75738;DHT22;64356;45.638;13.764;2022-10-31T13:52:25;21.70;72.70
75738;DHT22;64356;45.638;13.764;2022-10-31T13:54:53;21.70;72.50
75738;DHT22;64356;45.638;13.764;2022-10-31T13:57:43;21.70;72.90
75738;DHT22;64356;45.638;13.764;2022-10-31T14:00:24;21.70;72.70
75738;DHT22;64356;45.638;13.764;2022-10-31T14:02:53;21.70;72.50
75738;DHT22;64356;45.638;13.764;2022-10-31T14:07:49;21.70;72.60
75738;DHT22;64356;45.638;13.764;2022-10-31T14:10:28;21.70;72.60
75738;DHT22;64356;45.638;13.764;2022-10-31T14:13:20;21.70;72.40
75738;DHT22;64356;45.638;13.764;2022-10-31T14:16:16;21.70;72.50
75738;DHT22;64356;45.638;13.764;2022-10-31T14:18:50;21.70;72.20
75738;DHT22;64356;45.638;13.764;2022-10-31T14:23:49;21.70;72.40
75738;DHT22;64356;45.638;13.764;2022-10-31T14:29:21;21.70;71.70
75738;DHT22;64356;45.638;13.764;2022-10-31T14:31:53;21.70;71.80
75738;DHT22;64356;45.638;13.764;2022-10-31T14:34:34;21.60;72.00
75738;DHT22;64356;45.638;13.764;2022-10-31T14:39:57;21.70;71.80
75738;DHT22;64356;45.638;13.764;2022-10-31T14:45:59;21.70;71.60
75738;DHT22;64356;45.638;13.764;2022-10-31T14:51:02;21.70;71.60
75738;DHT22;64356;45.638;13.764;2022-10-31T14:53:33;21.70;71.50
75738;DHT22;64356;45.638;13.764;2022-10-31T14:55:59;21.70;71.40
75738;DHT22;64356;45.638;13.764;2022-10-31T14:58:43;21.70;71.20
75738;DHT22;64356;45.638;13.764;2022-10-31T15:01:29;21.70;71.10
75738;DHT22;64356;45.638;13.764;2022-10-31T15:04:31;21.70;71.20
75738;DHT22;64356;45.638;13.764;2022-10-31T15:07:15;21.70;71.30
75738;DHT22;64356;45.638;13.764;2022-10-31T15:09:42;21.70;71.20
75738;DHT22;64356;45.638;13.764;2022-10-31T15:14:50;21.70;71.10
75738;DHT22;64356;45.638;13.764;2022-10-31T15:17:16;21.70;71.10
75738;DHT22;64356;45.638;13.764;2022-10-31T15:19:42;21.60;71.00
75738;DHT22;64356;45.638;13.764;2022-10-31T15:22:14;21.60;71.30
75738;DHT22;64356;45.638;13.764;2022-10-31T15:24:41;21.70;71.80
75738;DHT22;64356;45.638;13.764;2022-10-31T15:27:12;21.70;71.20
75738;DHT22;64356;45.638;13.764;2022-10-31T15:29:46;21.70;71.20
75738;DHT22;64356;45.638;13.764;2022-10-31T15:34:44;21.60;71.30
75738;DHT22;64356;45.638;13.764;2022-10-31T15:37:14;21.70;71.40
75738;DHT22;64356;45.638;13.764;2022-10-31T15:39:41;21.70;71.40
75738;DHT22;64356;45.638;13.764;2022-10-31T15:44:51;21.70;71.50
75738;DHT22;64356;45.638;13.764;2022-10-31T15:47:19;21.70;71.50
75738;DHT22;64356;45.638;13.764;2022-10-31T15:49:50;21.70;71.50
75738;DHT22;64356;45.638;13.764;2022-10-31T15:55:02;21.70;71.70
75738;DHT22;64356;45.638;13.764;2022-10-31T15:57:29;21.70;71.80
75738;DHT22;64356;45.638;13.764;2022-10-31T15:59:56;21.70;71.80
75738;DHT22;64356;45.638;13.764;2022-10-31T16:02:24;21.70;71.80
75738;DHT22;64356;45.638;13.764;2022-10-31T16:04:50;21.70;71.80
75738;DHT22;64356;45.638;13.764;2022-10-31T16:07:18;21.70;71.80
75738;DHT22;64356;45.638;13.764;2022-10-31T16:09:56;21.70;71.80
75738;DHT22;64356;45.638;13.764;2022-10-31T16:12:23;21.70;71.70
75738;DHT22;64356;45.638;13.764;2022-10-31T16:14:54;21.70;71.70
75738;DHT22;64356;45.638;13.764;2022-10-31T16:17:22;21.80;71.90
75738;DHT22;64356;45.638;13.764;2022-10-31T16:19:57;21.70;71.70
75738;DHT22;64356;45.638;13.764;2022-10-31T16:22:37;21.70;71.70
75738;DHT22;64356;45.638;13.764;2022-10-31T16:25:23;21.80;71.90
75738;DHT22;64356;45.638;13.764;2022-10-31T16:27:52;21.70;71.80
75738;DHT22;64356;45.638;13.764;2022-10-31T16:32:58;21.80;71.90
75738;DHT22;64356;45.638;13.764;2022-10-31T16:35:31;21.80;71.70
75738;DHT22;64356;45.638;13.764;2022-10-31T16:37:57;21.90;71.80
75738;DHT22;64356;45.638;13.764;2022-10-31T16:40:23;21.90;72.10
75738;DHT22;64356;45.638;13.764;2022-10-31T16:42:49;21.90;72.10
75738;DHT22;64356;45.638;13.764;2022-10-31T16:45:21;22.00;72.10
75738;DHT22;64356;45.638;13.764;2022-10-31T16:47:48;22.10;72.00
75738;DHT22;64356;45.638;13.764;2022-10-31T16:50:25;22.00;71.80
75738;DHT22;64356;45.638;13.764;2022-10-31T16:52:51;22.00;71.70
75738;DHT22;64356;45.638;13.764;2022-10-31T16:55:19;22.00;71.80
75738;DHT22;64356;45.638;13.764;2022-10-31T16:57:48;22.00;71.90
75738;DHT22;64356;45.638;13.764;2022-10-31T17:00:17;22.00;72.00
75738;DHT22;64356;45.638;13.764;2022-10-31T17:02:44;22.00;72.30
75738;DHT22;64356;45.638;13.764;2022-10-31T17:05:12;22.00;72.80
75738;DHT22;64356;45.638;13.764;2022-10-31T17:07:38;22.00;73.80
75738;DHT22;64356;45.638;13.764;2022-10-31T17:10:04;22.00;73.70
75738;DHT22;64356;45.638;13.764;2022-10-31T17:12:30;22.10;74.00
75738;DHT22;64356;45.638;13.764;2022-10-31T17:14:56;22.10;74.40
75738;DHT22;64356;45.638;13.764;2022-10-31T17:17:22;22.10;74.40
75738;DHT22;64356;45.638;13.764;2022-10-31T17:19:48;22.00;74.40
75738;DHT22;64356;45.638;13.764;2022-10-31T17:22:14;22.10;74.60
75738;DHT22;64356;45.638;13.764;2022-10-31T17:24:39;22.10;74.90
75738;DHT22;64356;45.638;13.764;2022-10-31T17:27:05;22.00;75.00
75738;DHT22;64356;45.638;13.764;2022-10-31T17:29:31;22.00;75.10
75738;DHT22;64356;45.638;13.764;2022-10-31T17:31:57;22.10;75.10
75738;DHT22;64356;45.638;13.764;2022-10-31T17:34:24;22.10;75.10
75738;DHT22;64356;45.638;13.764;2022-10-31T17:36:51;22.10;74.70
75738;DHT22;64356;45.638;13.764;2022-10-31T17:39:20;22.10;74.90
75738;DHT22;64356;45.638;13.764;2022-10-31T17:41:49;22.10;75.10
75738;DHT22;64356;45.638;13.764;2022-10-31T17:44:15;22.00;75.20
75738;DHT22;64356;45.638;13.764;2022-10-31T17:46:40;22.00;75.20
75738;DHT22;64356;45.638;13.764;2022-10-31T17:49:06;22.00;75.20
75738;DHT22;64356;45.638;13.764;2022-10-31T17:51:33;22.00;75.20
75738;DHT22;64356;45.638;13.764;2022-10-31T17:53:59;22.00;75.20